Time;durP1;ratioP1;P1;durP2;ratioP2;P2;SDS_P1;SDS_P2;PMS_P1;PMS_P2;Temp;Humidity;BMP_temperature;BMP_pressure;BME280_temperature;BME280_humidity;BME280_pressure;Samples;Min_cycle;Max_cycle;Signal;HPM_P1;HPM_P2
2023/03/10 00:00:37;;;;;;;36.08;17.30;;;;;;;;;;4993468;28;20031;-70
2023/03/10 00:03:03;;;;;;;41.13;20.65;;;;;;;;;;4993551;28;20018;-72
2023/03/10 00:05:28;;;;;;;35.42;18.23;;;;;;;;;;4993393;28;20044;-71
2023/03/10 00:07:53;;;;;;;27.58;15.50;;;;;;;;;;4993370;28;20034;-71
2023/03/10 00:10:19;;;;;;;33.53;17.02;;;;;;;;;;4993469;28;20030;-71
2023/03/10 00:12:45;;;;;;;36.85;18.65;;;;;;;;;;4993508;28;20431;-70
2023/03/10 00:15:11;;;;;;;39.00;19.88;;;;;;;;;;4993417;28;20038;-71
2023/03/10 00:17:36;;;;;;;39.67;19.25;;;;;;;;;;4993491;28;20037;-71
2023/03/10 00:20:10;;;;;;;37.85;18.92;;;;;;;;;;4993403;28;20030;-72
2023/03/10 00:22:35;;;;;;;49.30;22.98;;;;;;;;;;4993424;28;20026;-70
2023/03/10 00:25:01;;;;;;;41.90;19.15;;;;;;;;;;4997291;28;20073;-72
2023/03/10 00:27:26;;;;;;;43.72;18.65;;;;;;;;;;4997326;28;20041;-72
2023/03/10 00:29:52;;;;;;;35.95;17.58;;;;;;;;;;4997098;28;20396;-70
2023/03/10 00:32:17;;;;;;;26.73;12.13;;;;;;;;;;5008264;28;20030;-71
2023/03/10 00:34:43;;;;;;;38.38;18.88;;;;;;;;;;5016661;28;20591;-70
2023/03/10 00:37:09;;;;;;;33.88;18.98;;;;;;;;;;5016565;28;20033;-70
2023/03/10 00:39:34;;;;;;;42.15;20.02;;;;;;;;;;5016718;28;20029;-71
2023/03/10 00:42:00;;;;;;;36.35;19.58;;;;;;;;;;5016646;28;20033;-71
2023/03/10 00:44:27;;;;;;;43.40;21.58;;;;;;;;;;5016595;28;20037;-70
2023/03/10 00:46:53;;;;;;;38.80;19.77;;;;;;;;;;5016541;28;20029;-70
2023/03/10 00:49:18;;;;;;;38.60;20.42;;;;;;;;;;5016548;28;20029;-69
2023/03/10 00:51:44;;;;;;;30.83;17.33;;;;;;;;;;5016258;28;20029;-70
2023/03/10 00:54:10;;;;;;;36.88;19.23;;;;;;;;;;5016330;28;20065;-70
2023/03/10 00:56:35;;;;;;;38.03;18.88;;;;;;;;;;5016470;28;20030;-71
2023/03/10 00:59:01;;;;;;;35.97;17.63;;;;;;;;;;5016409;28;20034;-70
2023/03/10 01:01:32;;;;;;;32.28;16.65;;;;;;;;;;5016128;28;20029;-70
2023/03/10 01:04:01;;;;;;;44.38;19.52;;;;;;;;;;5016132;28;20494;-71
2023/03/10 01:06:27;;;;;;;25.52;13.75;;;;;;;;;;5015909;28;20033;-72
2023/03/10 01:08:53;;;;;;;43.38;19.80;;;;;;;;;;5015984;28;20025;-71
2023/03/10 01:11:21;;;;;;;45.55;21.92;;;;;;;;;;5016039;28;20099;-69
2023/03/10 01:13:47;;;;;;;48.42;19.52;;;;;;;;;;5016124;28;20386;-70
2023/03/10 01:16:13;;;;;;;61.10;24.83;;;;;;;;;;5015968;28;20022;-69
2023/03/10 01:18:39;;;;;;;51.85;22.23;;;;;;;;;;5014685;28;20026;-70
2023/03/10 01:21:06;;;;;;;59.20;26.00;;;;;;;;;;5015574;28;20065;-70
2023/03/10 01:23:31;;;;;;;39.78;19.40;;;;;;;;;;5015770;28;20041;-71
2023/03/10 01:25:57;;;;;;;47.58;20.00;;;;;;;;;;5015925;28;20037;-70
2023/03/10 01:28:22;;;;;;;29.40;14.63;;;;;;;;;;5015626;28;20026;-71
2023/03/10 01:30:49;;;;;;;45.13;20.17;;;;;;;;;;5015603;28;20050;-71
2023/03/10 01:33:16;;;;;;;39.17;19.45;;;;;;;;;;5015427;28;20056;-71
2023/03/10 01:35:42;;;;;;;47.22;22.92;;;;;;;;;;5014795;28;20014;-70
2023/03/10 01:38:08;;;;;;;45.72;22.60;;;;;;;;;;5015727;28;20102;-71
2023/03/10 01:40:36;;;;;;;37.85;18.17;;;;;;;;;;5015724;28;20437;-70
2023/03/10 01:43:19;;;;;;;37.35;18.55;;;;;;;;;;5015448;28;20037;-70
2023/03/10 01:45:45;;;;;;;36.28;18.80;;;;;;;;;;5015567;28;20105;-70
2023/03/10 01:48:12;;;;;;;37.33;18.33;;;;;;;;;;5014112;28;20551;-70
2023/03/10 01:50:38;;;;;;;35.40;16.98;;;;;;;;;;5015244;28;20105;-69
2023/03/10 01:53:04;;;;;;;36.72;20.42;;;;;;;;;;5015405;28;20387;-70
2023/03/10 01:55:35;;;;;;;25.95;14.75;;;;;;;;;;5015121;28;20026;-69
2023/03/10 01:58:03;;;;;;;40.10;19.17;;;;;;;;;;5015209;28;20033;-71
2023/03/10 02:00:29;;;;;;;33.85;17.55;;;;;;;;;;5014988;28;20034;-69
2023/03/10 02:03:02;;;;;;;35.78;19.27;;;;;;;;;;5014941;28;20463;-70
2023/03/10 02:05:29;;;;;;;37.50;18.73;;;;;;;;;;5014966;28;20033;-69
2023/03/10 02:07:55;;;;;;;50.53;21.77;;;;;;;;;;5015092;28;20048;-69
2023/03/10 02:10:21;;;;;;;41.75;20.75;;;;;;;;;;5014977;28;20108;-70
2023/03/10 02:12:46;;;;;;;41.65;20.13;;;;;;;;;;5014960;28;20181;-70
2023/03/10 02:15:12;;;;;;;30.63;16.00;;;;;;;;;;5014864;28;20030;-71
2023/03/10 02:17:39;;;;;;;46.28;20.58;;;;;;;;;;5014453;28;20026;-69
2023/03/10 02:20:04;;;;;;;43.47;22.95;;;;;;;;;;5014607;28;20037;-69
2023/03/10 02:22:31;;;;;;;25.80;13.23;;;;;;;;;;5013522;28;20397;-70
2023/03/10 02:25:12;;;;;;;49.15;25.58;;;;;;;;;;5014641;28;20030;-69
2023/03/10 02:27:39;;;;;;;23.35;14.30;;;;;;;;;;5014674;28;20483;-70
2023/03/10 02:30:17;;;;;;;37.90;17.85;;;;;;;;;;5014568;28;20126;-69
2023/03/10 02:32:50;;;;;;;45.30;23.88;;;;;;;;;;5014555;28;20399;-69
2023/03/10 02:35:16;;;;;;;46.58;24.33;;;;;;;;;;5014625;28;20028;-69
2023/03/10 02:37:42;;;;;;;41.33;19.60;;;;;;;;;;5014679;28;20109;-69
2023/03/10 02:40:30;;;;;;;38.20;19.75;;;;;;;;;;5014302;28;20030;-69
2023/03/10 02:42:57;;;;;;;45.58;23.08;;;;;;;;;;5010949;28;20042;-69
2023/03/10 02:45:30;;;;;;;42.67;19.52;;;;;;;;;;5014176;28;20034;-69
2023/03/10 02:47:56;;;;;;;46.10;23.05;;;;;;;;;;5013278;28;20025;-69
2023/03/10 02:50:21;;;;;;;46.42;23.08;;;;;;;;;;5014289;28;20030;-69
2023/03/10 02:52:58;;;;;;;55.03;25.17;;;;;;;;;;5014180;28;20392;-69
2023/03/10 02:55:24;;;;;;;47.47;21.98;;;;;;;;;;5014021;28;20140;-69
2023/03/10 02:57:49;;;;;;;43.78;22.27;;;;;;;;;;5014191;28;20018;-70
2023/03/10 03:00:15;;;;;;;45.47;20.33;;;;;;;;;;5014066;28;20041;-69
2023/03/10 03:02:41;;;;;;;49.50;21.20;;;;;;;;;;5013815;28;20080;-69
2023/03/10 03:05:06;;;;;;;41.50;19.17;;;;;;;;;;5013919;28;20030;-69
2023/03/10 03:07:32;;;;;;;36.75;18.63;;;;;;;;;;5013803;28;20104;-69
2023/03/10 03:09:57;;;;;;;49.78;25.85;;;;;;;;;;5014005;28;20080;-69
2023/03/10 03:12:23;;;;;;;35.05;18.67;;;;;;;;;;5013849;28;20026;-69
2023/03/10 03:14:48;;;;;;;37.83;19.92;;;;;;;;;;5013801;28;20022;-69
2023/03/10 03:17:14;;;;;;;40.05;20.23;;;;;;;;;;5012283;28;20436;-70
2023/03/10 03:19:39;;;;;;;41.33;19.88;;;;;;;;;;5013786;28;20109;-69
2023/03/10 03:22:05;;;;;;;37.25;19.85;;;;;;;;;;5013696;28;20201;-69
2023/03/10 03:24:31;;;;;;;47.72;23.70;;;;;;;;;;5012327;28;20103;-71
2023/03/10 03:26:57;;;;;;;37.55;18.38;;;;;;;;;;5013685;28;20121;-69
2023/03/10 03:29:22;;;;;;;35.80;18.25;;;;;;;;;;5013456;28;20507;-71
2023/03/10 03:31:47;;;;;;;45.20;23.40;;;;;;;;;;5013095;28;20057;-70
2023/03/10 03:34:14;;;;;;;43.55;22.63;;;;;;;;;;5013493;28;20022;-69
2023/03/10 03:36:40;;;;;;;31.00;16.88;;;;;;;;;;5013536;28;20022;-69
2023/03/10 03:39:06;;;;;;;41.33;22.42;;;;;;;;;;5013472;28;20030;-69
2023/03/10 03:41:32;;;;;;;44.92;21.98;;;;;;;;;;5013305;28;20053;-69
2023/03/10 03:43:58;;;;;;;47.08;22.75;;;;;;;;;;5013410;28;20030;-70
2023/03/10 03:46:23;;;;;;;39.20;21.38;;;;;;;;;;5013129;28;20531;-71
2023/03/10 03:48:49;;;;;;;33.97;18.83;;;;;;;;;;5013232;28;20026;-70
2023/03/10 03:51:14;;;;;;;43.33;21.85;;;;;;;;;;5013271;28;20415;-70
2023/03/10 03:53:40;;;;;;;48.80;23.38;;;;;;;;;;5013287;28;20026;-71
2023/03/10 03:56:06;;;;;;;46.92;23.20;;;;;;;;;;5013137;28;20037;-70
2023/03/10 03:58:31;;;;;;;50.72;24.35;;;;;;;;;;5012906;28;20072;-70
2023/03/10 04:00:57;;;;;;;54.17;27.48;;;;;;;;;;5012769;28;20041;-70
2023/03/10 04:03:22;;;;;;;58.22;27.85;;;;;;;;;;5013096;28;20022;-70
2023/03/10 04:05:48;;;;;;;48.55;24.98;;;;;;;;;;5013074;28;20113;-70
2023/03/10 04:08:14;;;;;;;42.08;20.25;;;;;;;;;;5012982;28;20498;-69
2023/03/10 04:10:39;;;;;;;45.33;21.05;;;;;;;;;;5012677;28;20050;-70
2023/03/10 04:13:05;;;;;;;41.60;19.38;;;;;;;;;;5013233;28;20385;-70
2023/03/10 04:15:30;;;;;;;44.45;21.45;;;;;;;;;;5012838;28;20022;-70
2023/03/10 04:17:56;;;;;;;50.58;24.55;;;;;;;;;;5012968;28;20018;-70
2023/03/10 04:20:23;;;;;;;32.38;16.20;;;;;;;;;;5012894;28;20493;-70
2023/03/10 04:22:50;;;;;;;44.55;20.15;;;;;;;;;;5012670;28;20386;-70
2023/03/10 04:25:15;;;;;;;41.38;21.02;;;;;;;;;;5012975;28;20022;-70
2023/03/10 04:27:41;;;;;;;46.80;23.02;;;;;;;;;;5012806;28;20026;-70
2023/03/10 04:30:08;;;;;;;29.27;14.00;;;;;;;;;;5012532;28;20077;-70
2023/03/10 04:32:33;;;;;;;44.72;21.73;;;;;;;;;;5012747;28;20427;-70
2023/03/10 04:35:00;;;;;;;40.05;19.80;;;;;;;;;;5012677;28;20028;-70
2023/03/10 04:37:26;;;;;;;44.05;21.35;;;;;;;;;;5012834;28;20089;-70
2023/03/10 04:39:51;;;;;;;50.22;24.80;;;;;;;;;;5012691;28;20109;-70
2023/03/10 04:42:17;;;;;;;37.00;17.95;;;;;;;;;;5012382;28;20039;-69
2023/03/10 04:44:42;;;;;;;50.58;20.83;;;;;;;;;;5012748;28;20090;-70
2023/03/10 04:47:08;;;;;;;47.63;23.60;;;;;;;;;;5012629;28;20108;-68
2023/03/10 04:49:35;;;;;;;38.42;18.75;;;;;;;;;;5012739;28;20041;-69
2023/03/10 04:52:00;;;;;;;43.85;21.10;;;;;;;;;;5012783;28;20045;-70
2023/03/10 04:54:26;;;;;;;45.35;21.17;;;;;;;;;;5012579;28;20486;-70
2023/03/10 04:56:51;;;;;;;48.92;22.85;;;;;;;;;;5012410;28;20061;-69
2023/03/10 04:59:18;;;;;;;49.00;22.42;;;;;;;;;;5012595;28;20038;-69
2023/03/10 05:01:44;;;;;;;40.13;20.25;;;;;;;;;;5012555;28;20349;-70
2023/03/10 05:04:09;;;;;;;35.20;18.48;;;;;;;;;;5012475;28;20101;-70
2023/03/10 05:06:35;;;;;;;40.90;19.38;;;;;;;;;;5012592;28;20025;-70
2023/03/10 05:09:03;;;;;;;46.35;20.70;;;;;;;;;;5011189;28;20026;-69
2023/03/10 05:11:29;;;;;;;41.92;23.17;;;;;;;;;;5015182;28;20478;-69
2023/03/10 05:13:54;;;;;;;47.17;24.23;;;;;;;;;;5016004;28;20061;-69
2023/03/10 05:16:21;;;;;;;47.20;23.27;;;;;;;;;;5015903;28;20475;-69
2023/03/10 05:18:46;;;;;;;43.83;21.58;;;;;;;;;;5015836;28;20092;-70
2023/03/10 05:21:12;;;;;;;46.33;22.45;;;;;;;;;;5015796;28;20033;-69
2023/03/10 05:23:38;;;;;;;48.10;23.45;;;;;;;;;;5015464;28;20029;-69
2023/03/10 05:26:08;;;;;;;50.13;23.75;;;;;;;;;;5015477;28;20108;-68
2023/03/10 05:28:34;;;;;;;49.38;23.30;;;;;;;;;;5014589;28;20049;-68
2023/03/10 05:30:59;;;;;;;51.97;25.05;;;;;;;;;;5015133;28;20491;-69
2023/03/10 05:33:25;;;;;;;54.90;26.38;;;;;;;;;;5015501;28;20053;-69
2023/03/10 05:35:51;;;;;;;45.60;24.17;;;;;;;;;;5015628;28;20026;-69
2023/03/10 05:38:17;;;;;;;47.13;23.25;;;;;;;;;;5015652;28;20033;-69
2023/03/10 05:40:43;;;;;;;49.28;26.58;;;;;;;;;;5015194;28;20056;-70
2023/03/10 05:43:09;;;;;;;40.50;20.88;;;;;;;;;;5015160;28;20026;-70
2023/03/10 05:45:35;;;;;;;49.65;22.83;;;;;;;;;;5015398;28;20100;-70
2023/03/10 05:48:00;;;;;;;52.25;24.02;;;;;;;;;;5015529;28;20113;-69
2023/03/10 05:50:26;;;;;;;50.28;24.50;;;;;;;;;;5015392;28;20038;-70
2023/03/10 05:52:52;;;;;;;53.53;26.42;;;;;;;;;;5014889;28;20018;-71
2023/03/10 05:55:18;;;;;;;42.88;20.30;;;;;;;;;;5014999;28;20099;-70
2023/03/10 05:57:45;;;;;;;56.50;28.55;;;;;;;;;;5015162;28;20383;-70
2023/03/10 06:00:12;;;;;;;34.85;17.80;;;;;;;;;;5000168;28;20022;-70
2023/03/10 06:02:38;;;;;;;48.65;24.42;;;;;;;;;;4995367;28;20041;-70
2023/03/10 06:05:06;;;;;;;44.45;21.42;;;;;;;;;;4995321;28;20436;-71
2023/03/10 06:07:32;;;;;;;49.28;21.92;;;;;;;;;;4995332;28;20037;-71
2023/03/10 06:09:57;;;;;;;47.10;23.52;;;;;;;;;;4995252;28;20034;-70
2023/03/10 06:12:23;;;;;;;51.33;23.65;;;;;;;;;;4995359;28;20026;-71
2023/03/10 06:14:49;;;;;;;49.25;24.30;;;;;;;;;;4995290;28;20027;-71
2023/03/10 06:17:14;;;;;;;49.50;23.75;;;;;;;;;;4995261;28;20101;-71
2023/03/10 06:19:40;;;;;;;48.97;22.65;;;;;;;;;;4995286;28;20061;-71
2023/03/10 06:22:05;;;;;;;22.92;13.07;;;;;;;;;;4994858;28;20033;-70
2023/03/10 06:24:30;;;;;;;41.35;20.77;;;;;;;;;;4993596;28;20027;-70
2023/03/10 06:26:56;;;;;;;48.03;24.02;;;;;;;;;;4994942;28;20053;-71
2023/03/10 06:29:21;;;;;;;52.83;23.90;;;;;;;;;;4994758;28;20519;-71
2023/03/10 06:31:47;;;;;;;44.00;22.58;;;;;;;;;;5001658;28;20041;-70
2023/03/10 06:34:12;;;;;;;42.97;20.98;;;;;;;;;;5014405;28;20049;-70
2023/03/10 06:36:39;;;;;;;42.70;21.35;;;;;;;;;;5014484;28;20041;-70
2023/03/10 06:39:05;;;;;;;43.15;21.13;;;;;;;;;;5014006;28;20069;-71
2023/03/10 06:41:31;;;;;;;45.33;21.90;;;;;;;;;;5014185;28;20030;-70
2023/03/10 06:43:56;;;;;;;41.20;21.55;;;;;;;;;;5014295;28;20347;-69
2023/03/10 06:46:24;;;;;;;48.35;23.80;;;;;;;;;;5014155;28;20029;-69
2023/03/10 06:48:50;;;;;;;45.08;21.38;;;;;;;;;;5014133;28;20391;-69
2023/03/10 06:51:18;;;;;;;45.22;23.95;;;;;;;;;;5014115;28;20033;-69
2023/03/10 06:53:45;;;;;;;47.75;23.98;;;;;;;;;;5013837;28;20117;-69
2023/03/10 06:56:19;;;;;;;44.85;23.73;;;;;;;;;;5014060;28;20109;-69
2023/03/10 06:58:45;;;;;;;43.03;20.65;;;;;;;;;;5014068;28;20068;-69
2023/03/10 07:01:37;;;;;;;40.83;20.02;;;;;;;;;;5013931;28;20084;-70
2023/03/10 07:04:02;;;;;;;41.10;21.00;;;;;;;;;;5012616;28;20061;-69
2023/03/10 07:06:29;;;;;;;44.58;23.63;;;;;;;;;;5014021;28;20018;-69
2023/03/10 07:08:54;;;;;;;43.65;23.08;;;;;;;;;;5013696;28;20077;-69
2023/03/10 07:11:22;;;;;;;38.22;19.20;;;;;;;;;;5013941;28;20471;-69
2023/03/10 07:13:47;;;;;;;37.78;18.92;;;;;;;;;;5013817;28;20029;-69
2023/03/10 07:16:13;;;;;;;38.92;21.17;;;;;;;;;;5013698;28;20081;-69
2023/03/10 07:18:39;;;;;;;37.30;19.75;;;;;;;;;;5013652;28;20022;-70
2023/03/10 07:21:09;;;;;;;32.95;18.73;;;;;;;;;;5013550;28;20104;-69
2023/03/10 07:23:34;;;;;;;;;;;;;;;;;;5013536;28;20360;-70
2023/03/10 07:26:00;;;;;;;37.22;20.35;;;;;;;;;;5013639;28;19921;-69
2023/03/10 07:28:26;;;;;;;36.47;20.17;;;;;;;;;;5013636;28;20022;-69
2023/03/10 07:30:55;;;;;;;37.00;19.67;;;;;;;;;;5013290;28;20034;-69
2023/03/10 07:33:20;;;;;;;29.02;15.77;;;;;;;;;;5012858;28;20030;-69
2023/03/10 07:35:46;;;;;;;34.78;19.38;;;;;;;;;;5013448;28;20025;-69
2023/03/10 07:38:12;;;;;;;33.53;18.80;;;;;;;;;;5013168;28;20044;-70
2023/03/10 07:40:40;;;;;;;30.08;16.00;;;;;;;;;;5013050;28;20030;-69
2023/03/10 07:43:06;;;;;;;35.45;19.95;;;;;;;;;;5011821;28;20022;-69
2023/03/10 07:45:32;;;;;;;34.33;19.30;;;;;;;;;;5013189;28;20105;-70
2023/03/10 07:47:58;;;;;;;37.33;20.10;;;;;;;;;;5013169;28;20025;-69
2023/03/10 07:50:24;;;;;;;26.60;16.60;;;;;;;;;;5013385;28;20045;-70
2023/03/10 07:52:49;;;;;;;31.27;18.27;;;;;;;;;;5012492;28;20049;-70
2023/03/10 07:55:15;;;;;;;31.75;17.52;;;;;;;;;;5012841;28;20060;-69
2023/03/10 07:57:41;;;;;;;32.10;17.10;;;;;;;;;;5012996;28;20018;-69
2023/03/10 08:00:07;;;;;;;34.03;19.98;;;;;;;;;;5012081;28;20021;-69
2023/03/10 08:02:32;;;;;;;35.70;19.25;;;;;;;;;;4983827;28;20026;-68
2023/03/10 08:04:58;;;;;;;34.00;19.05;;;;;;;;;;4990330;28;20444;-68
2023/03/10 08:07:26;;;;;;;35.05;17.88;;;;;;;;;;4989099;28;20050;-69
2023/03/10 08:09:52;;;;;;;28.02;17.20;;;;;;;;;;4992590;28;20026;-70
2023/03/10 08:12:19;;;;;;;33.88;18.35;;;;;;;;;;4987372;28;20476;-70
2023/03/10 08:14:45;;;;;;;33.72;20.70;;;;;;;;;;4992815;28;20026;-70
2023/03/10 08:17:11;;;;;;;34.13;18.83;;;;;;;;;;4992799;28;20506;-70
2023/03/10 08:19:37;;;;;;;31.95;17.85;;;;;;;;;;4992902;28;20022;-69
2023/03/10 08:22:02;;;;;;;33.33;19.95;;;;;;;;;;4992598;28;20136;-69
2023/03/10 08:24:28;;;;;;;33.83;17.67;;;;;;;;;;4992502;28;20026;-69
2023/03/10 08:26:53;;;;;;;35.90;19.52;;;;;;;;;;4991928;28;20479;-69
2023/03/10 08:29:19;;;;;;;34.17;18.15;;;;;;;;;;4988210;28;20146;-69
2023/03/10 08:31:44;;;;;;;33.08;17.13;;;;;;;;;;4992816;28;20431;-69
2023/03/10 08:34:10;;;;;;;27.63;16.88;;;;;;;;;;4992843;28;20092;-69
2023/03/10 08:36:37;;;;;;;35.40;18.73;;;;;;;;;;4985592;28;20523;-69
2023/03/10 08:39:04;;;;;;;29.13;16.48;;;;;;;;;;4984943;28;20033;-69
2023/03/10 08:41:43;;;;;;;31.60;17.65;;;;;;;;;;4991798;28;20034;-69
2023/03/10 08:44:13;;;;;;;36.13;18.95;;;;;;;;;;4982288;28;20114;-69
2023/03/10 08:46:39;;;;;;;;;;;;;;;;;;4996622;28;20057;-69
2023/03/10 08:49:04;;;;;;;32.88;18.38;;;;;;;;;;4989911;28;19918;-70
2023/03/10 08:51:30;;;;;;;33.15;16.83;;;;;;;;;;4996200;28;20081;-69
2023/03/10 08:53:55;;;;;;;35.38;17.80;;;;;;;;;;4995659;28;20444;-69
2023/03/10 08:56:22;;;;;;;34.17;19.10;;;;;;;;;;4995717;28;20105;-69
2023/03/10 08:58:48;;;;;;;22.58;12.05;;;;;;;;;;4995202;28;20471;-69
2023/03/10 09:01:17;;;;;;;24.45;13.98;;;;;;;;;;4996017;28;20445;-69
2023/03/10 09:03:45;;;;;;;32.33;18.80;;;;;;;;;;4996070;28;20030;-69
2023/03/10 09:06:11;;;;;;;30.17;17.58;;;;;;;;;;4995930;28;20101;-69
2023/03/10 09:08:38;;;;;;;20.23;11.85;;;;;;;;;;4996119;28;20159;-69
2023/03/10 09:11:04;;;;;;;30.45;15.50;;;;;;;;;;4995999;28;20056;-69
2023/03/10 09:13:29;;;;;;;35.53;20.23;;;;;;;;;;4996066;28;20062;-68
2023/03/10 09:15:55;;;;;;;30.25;16.80;;;;;;;;;;4995894;28;20038;-69
2023/03/10 09:18:20;;;;;;;32.65;17.88;;;;;;;;;;4995829;28;20033;-69
2023/03/10 09:20:46;;;;;;;31.90;19.83;;;;;;;;;;4995965;28;20034;-69
2023/03/10 09:23:13;;;;;;;30.45;17.30;;;;;;;;;;4995729;28;20380;-69
2023/03/10 09:25:39;;;;;;;27.13;14.88;;;;;;;;;;4995747;28;20026;-69
2023/03/10 09:28:06;;;;;;;35.17;20.17;;;;;;;;;;4995734;28;20034;-69
2023/03/10 09:30:36;;;;;;;26.02;15.90;;;;;;;;;;4995568;28;20096;-68
2023/03/10 09:33:04;;;;;;;28.15;16.85;;;;;;;;;;5005270;28;20022;-68
2023/03/10 09:35:30;;;;;;;31.58;17.58;;;;;;;;;;4985430;28;20019;-68
2023/03/10 09:37:55;;;;;;;22.45;13.10;;;;;;;;;;4980621;28;20114;-68
2023/03/10 09:40:22;;;;;;;30.98;17.75;;;;;;;;;;4995505;28;20546;-68
2023/03/10 09:42:58;;;;;;;27.95;16.50;;;;;;;;;;4983243;28;20034;-68
2023/03/10 09:45:42;;;;;;;30.20;17.45;;;;;;;;;;4984748;28;20072;-68
2023/03/10 09:48:27;;;;;;;29.30;18.08;;;;;;;;;;4984793;28;20397;-69
2023/03/10 09:50:55;;;;;;;29.90;16.80;;;;;;;;;;4986041;28;20392;-68
2023/03/10 09:53:45;;;;;;;26.08;16.20;;;;;;;;;;4978580;28;20023;-68
2023/03/10 09:56:15;;;;;;;26.83;16.88;;;;;;;;;;4977956;28;20038;-68
2023/03/10 09:58:53;;;;;;;22.83;12.80;;;;;;;;;;4976041;28;20046;-69
2023/03/10 10:01:22;;;;;;;28.75;15.38;;;;;;;;;;4975219;28;20038;-69
2023/03/10 10:04:09;;;;;;;26.00;15.10;;;;;;;;;;4975604;28;20030;-69
2023/03/10 10:06:42;;;;;;;28.92;17.98;;;;;;;;;;4979654;28;20057;-69
2023/03/10 10:09:42;;;;;;;29.55;16.20;;;;;;;;;;4994236;28;20037;-69
2023/03/10 10:12:22;;;;;;;29.80;18.08;;;;;;;;;;4995199;28;20026;-69
2023/03/10 10:14:50;;;;;;;28.38;17.75;;;;;;;;;;4995017;28;20479;-69
2023/03/10 10:17:53;;;;;;;25.45;14.85;;;;;;;;;;4994785;28;20038;-70
2023/03/10 10:20:27;;;;;;;24.70;14.13;;;;;;;;;;4994912;28;20484;-69
2023/03/10 10:22:52;;;;;;;25.10;15.18;;;;;;;;;;4994931;28;20109;-68
2023/03/10 10:25:21;;;;;;;22.17;12.52;;;;;;;;;;4993543;28;20517;-67
2023/03/10 10:27:51;;;;;;;26.38;16.42;;;;;;;;;;4994673;28;20026;-68
2023/03/10 10:30:29;;;;;;;27.95;15.82;;;;;;;;;;4992206;28;20049;-67
2023/03/10 10:33:07;;;;;;;26.20;15.10;;;;;;;;;;4992405;28;20042;-68
2023/03/10 10:35:36;;;;;;;28.20;16.67;;;;;;;;;;4994247;28;20030;-67
2023/03/10 10:38:09;;;;;;;30.80;18.08;;;;;;;;;;4994462;28;20039;-68
2023/03/10 10:40:58;;;;;;;31.38;16.48;;;;;;;;;;4994277;28;20034;-68
2023/03/10 10:43:24;;;;;;;31.27;16.55;;;;;;;;;;4994373;28;20036;-68
2023/03/10 10:45:56;;;;;;;28.10;16.55;;;;;;;;;;4992848;28;20030;-68
2023/03/10 10:48:46;;;;;;;27.75;16.48;;;;;;;;;;4990182;28;20034;-68
2023/03/10 10:51:29;;;;;;;26.23;14.93;;;;;;;;;;4994442;28;20042;-67
2023/03/10 10:54:00;;;;;;;26.27;15.20;;;;;;;;;;4994263;28;20380;-67
2023/03/10 10:56:27;;;;;;;29.85;18.05;;;;;;;;;;4993034;28;20113;-68
2023/03/10 10:59:03;;;;;;;25.80;15.90;;;;;;;;;;4976595;28;20026;-67
2023/03/10 11:01:57;;;;;;;30.90;18.95;;;;;;;;;;4992425;28;20089;-67
2023/03/10 11:04:24;;;;;;;28.48;16.60;;;;;;;;;;4993911;28;20026;-67
2023/03/10 11:06:52;;;;;;;28.15;16.70;;;;;;;;;;4993311;28;20053;-67
2023/03/10 11:09:23;;;;;;;27.90;17.40;;;;;;;;;;4992928;28;20030;-67
2023/03/10 11:12:00;;;;;;;26.48;15.20;;;;;;;;;;4974595;28;20077;-67
2023/03/10 11:15:11;;;;;;;30.75;16.70;;;;;;;;;;4972816;28;20038;-68
2023/03/10 11:18:17;;;;;;;29.88;17.05;;;;;;;;;;4952916;29;20050;-68
2023/03/10 11:21:21;;;;;;;33.03;17.08;;;;;;;;;;4951664;29;20497;-67
2023/03/10 11:23:55;;;;;;;29.08;16.67;;;;;;;;;;4952758;29;20246;-68
2023/03/10 11:26:41;;;;;;;28.63;17.30;;;;;;;;;;4952697;29;20031;-67
2023/03/10 11:29:35;;;;;;;25.90;15.93;;;;;;;;;;4951749;29;20061;-68
2023/03/10 11:32:04;;;;;;;32.47;17.15;;;;;;;;;;4970490;28;20087;-68
2023/03/10 11:34:34;;;;;;;32.00;17.55;;;;;;;;;;4991226;28;20065;-67
2023/03/10 11:37:31;;;;;;;32.65;19.20;;;;;;;;;;4991368;28;20416;-67
2023/03/10 11:40:24;;;;;;;32.95;18.40;;;;;;;;;;4970776;28;20035;-68
2023/03/10 11:43:01;;;;;;;29.35;16.83;;;;;;;;;;4971683;28;20046;-67
2023/03/10 11:45:53;;;;;;;27.90;17.38;;;;;;;;;;4971740;28;20039;-67
2023/03/10 11:48:40;;;;;;;36.65;21.30;;;;;;;;;;4963035;28;20503;-68
2023/03/10 11:51:20;;;;;;;30.13;18.95;;;;;;;;;;4971748;28;20031;-68
2023/03/10 11:54:02;;;;;;;31.55;18.80;;;;;;;;;;4974544;28;20554;-68
2023/03/10 11:56:28;;;;;;;31.88;18.20;;;;;;;;;;4991967;28;20062;-68
2023/03/10 11:59:20;;;;;;;30.15;17.95;;;;;;;;;;4992826;28;20062;-68
2023/03/10 12:02:05;;;;;;;34.40;18.85;;;;;;;;;;4993002;28;20484;-67
2023/03/10 12:04:34;;;;;;;29.42;17.02;;;;;;;;;;4992621;28;20022;-68
2023/03/10 12:07:26;;;;;;;29.52;17.50;;;;;;;;;;4993142;28;20023;-68
2023/03/10 12:10:08;;;;;;;31.10;17.65;;;;;;;;;;4990280;28;20129;-68
2023/03/10 12:12:38;;;;;;;33.08;19.23;;;;;;;;;;4992767;28;20076;-68
2023/03/10 12:15:29;;;;;;;27.90;17.23;;;;;;;;;;4993023;28;20046;-67
2023/03/10 12:17:58;;;;;;;30.80;18.88;;;;;;;;;;4993223;28;20065;-68
2023/03/10 12:20:28;;;;;;;34.70;19.00;;;;;;;;;;4994632;28;20111;-67
2023/03/10 12:22:55;;;;;;;30.10;18.95;;;;;;;;;;4997073;28;20034;-68
2023/03/10 12:25:29;;;;;;;30.45;17.92;;;;;;;;;;4996815;28;20030;-68
2023/03/10 12:28:16;;;;;;;30.00;17.38;;;;;;;;;;4996754;28;20041;-68
2023/03/10 12:30:47;;;;;;;28.15;16.23;;;;;;;;;;4996657;28;20046;-68
2023/03/10 12:33:36;;;;;;;28.23;15.90;;;;;;;;;;4996866;28;20041;-68
2023/03/10 12:36:34;;;;;;;28.50;17.65;;;;;;;;;;4996701;28;20038;-68
2023/03/10 12:39:27;;;;;;;29.48;18.52;;;;;;;;;;4991278;28;20062;-68
2023/03/10 12:41:59;;;;;;;36.15;20.35;;;;;;;;;;5012612;28;20034;-68
2023/03/10 12:45:02;;;;;;;32.20;19.63;;;;;;;;;;4984705;28;20032;-67
2023/03/10 12:47:49;;;;;;;35.42;21.23;;;;;;;;;;4981255;28;20147;-68
2023/03/10 12:50:21;;;;;;;34.92;19.23;;;;;;;;;;4990482;28;20034;-68
2023/03/10 12:52:53;;;;;;;29.83;17.83;;;;;;;;;;4981451;28;20049;-68
2023/03/10 12:55:20;;;;;;;30.23;17.52;;;;;;;;;;4973231;28;20609;-68
2023/03/10 12:57:46;;;;;;;31.33;18.27;;;;;;;;;;4967227;28;20046;-68
2023/03/10 13:00:38;;;;;;;31.75;18.80;;;;;;;;;;4974766;28;20031;-68
2023/03/10 13:03:09;;;;;;;30.02;18.10;;;;;;;;;;4970337;28;20035;-68
2023/03/10 13:05:40;;;;;;;30.10;18.23;;;;;;;;;;4970463;28;20027;-68
2023/03/10 13:08:46;;;;;;;32.00;17.95;;;;;;;;;;4969153;28;20046;-68
2023/03/10 13:11:17;;;;;;;32.70;19.30;;;;;;;;;;4861436;29;20042;-68
2023/03/10 13:13:47;;;;;;;69.40;31.58;;;;;;;;;;4860803;29;20483;-68
2023/03/10 13:16:17;;;;;;;77.43;34.30;;;;;;;;;;4863731;29;20403;-68
2023/03/10 13:18:47;;;;;;;;;;;;;;;;;;4879863;29;20029;-68
2023/03/10 13:21:22;;;;;;;35.75;20.08;;;;;;;;;;4894612;29;19915;-68
2023/03/10 13:23:48;;;;;;;26.23;17.13;;;;;;;;;;4916417;29;20402;-68
2023/03/10 13:26:15;;;;;;;27.45;17.33;;;;;;;;;;4916328;29;20024;-68
2023/03/10 13:28:56;;;;;;;31.42;20.20;;;;;;;;;;4900821;29;20092;-68
2023/03/10 13:31:27;;;;;;;31.17;18.80;;;;;;;;;;4915576;29;20032;-68
2023/03/10 13:33:54;;;;;;;38.53;24.70;;;;;;;;;;4916487;29;20426;-68
2023/03/10 13:36:34;;;;;;;33.80;19.30;;;;;;;;;;4910966;29;20069;-68
2023/03/10 13:39:20;;;;;;;33.08;19.35;;;;;;;;;;4916361;29;20040;-68
2023/03/10 13:41:51;;;;;;;33.15;19.17;;;;;;;;;;4951024;28;20064;-68
2023/03/10 13:44:23;;;;;;;63.15;30.02;;;;;;;;;;4995319;28;20041;-68
2023/03/10 13:46:55;;;;;;;46.05;22.98;;;;;;;;;;4995470;28;20022;-68
2023/03/10 13:49:24;;;;;;;34.15;20.02;;;;;;;;;;4995410;28;20027;-68
2023/03/10 13:52:04;;;;;;;43.83;25.33;;;;;;;;;;4995297;28;20637;-68
2023/03/10 13:54:34;;;;;;;32.20;19.20;;;;;;;;;;4995147;28;20486;-68
2023/03/10 13:57:08;;;;;;;36.45;20.15;;;;;;;;;;4993728;28;20353;-67
2023/03/10 13:59:35;;;;;;;35.53;18.65;;;;;;;;;;4995299;28;20113;-69
2023/03/10 14:02:01;;;;;;;27.73;17.85;;;;;;;;;;4992769;28;20034;-69
2023/03/10 14:05:05;;;;;;;28.10;18.17;;;;;;;;;;4995244;28;20076;-68
2023/03/10 14:07:33;;;;;;;29.13;18.05;;;;;;;;;;4954059;29;20071;-68
2023/03/10 14:10:05;;;;;;;29.88;18.42;;;;;;;;;;4937622;29;20550;-68
2023/03/10 14:12:51;;;;;;;31.70;18.35;;;;;;;;;;4954111;29;20087;-68
2023/03/10 14:15:29;;;;;;;32.90;21.52;;;;;;;;;;4954103;29;20063;-68
2023/03/10 14:18:06;;;;;;;40.50;25.73;;;;;;;;;;4953994;29;20050;-68
2023/03/10 14:20:32;;;;;;;34.85;20.92;;;;;;;;;;4953962;29;20445;-70
2023/03/10 14:22:58;;;;;;;29.98;19.23;;;;;;;;;;4953597;29;20047;-68
2023/03/10 14:25:24;;;;;;;29.30;18.45;;;;;;;;;;4953900;29;20039;-68
2023/03/10 14:27:57;;;;;;;30.92;18.38;;;;;;;;;;4953839;29;20040;-68
2023/03/10 14:30:25;;;;;;;31.33;17.15;;;;;;;;;;4953619;29;20047;-68
2023/03/10 14:32:52;;;;;;;28.48;17.10;;;;;;;;;;4953617;29;20035;-68
2023/03/10 14:35:19;;;;;;;28.88;17.58;;;;;;;;;;4953557;29;20389;-68